Time;durP1;ratioP1;P1;durP2;ratioP2;P2;SDS_P1;SDS_P2;PMS_P1;PMS_P2;Temp;Humidity;BMP_temperature;BMP_pressure;BME280_temperature;BME280_humidity;BME280_pressure;Samples;Min_cycle;Max_cycle;Signal;HPM_P1;HPM_P2
2021/11/25 00:01:24;;;;;;;1.35;0.85;;;21.20;27.50;21.80;93301.00;;;;10270354;28;47037;-67
2021/11/25 00:06:24;;;;;;;1.48;0.82;;;21.30;27.50;21.80;93277.00;;;;10268221;28;47021;-68
2021/11/25 00:11:25;;;;;;;1.15;0.80;;;21.30;27.50;21.70;93271.00;;;;10297473;28;47087;-68
2021/11/25 00:16:26;;;;;;;1.23;0.90;;;21.30;27.50;21.80;93267.00;;;;10285669;28;45578;-67
2021/11/25 00:21:27;;;;;;;1.30;0.90;;;21.30;27.50;21.80;93264.00;;;;10285861;28;45569;-68
2021/11/25 00:26:28;;;;;;;0.95;0.80;;;21.30;27.50;21.80;93262.00;;;;10269923;28;47269;-72
2021/11/25 00:31:30;;;;;;;0.80;0.70;;;21.30;27.50;21.70;93274.00;;;;10302621;28;47156;-66
2021/11/25 00:36:31;;;;;;;1.17;0.73;;;21.30;27.50;21.70;93265.00;;;;10302209;28;46936;-66
2021/11/25 00:41:31;;;;;;;0.75;0.73;;;21.30;27.50;21.80;93238.00;;;;10286049;28;45276;-66
2021/11/25 00:46:32;;;;;;;0.85;0.70;;;21.30;27.50;21.80;93257.00;;;;10269544;28;47346;-67
2021/11/25 00:51:33;;;;;;;1.40;0.82;;;21.20;27.50;21.70;93244.00;;;;10285841;28;45443;-66
2021/11/25 00:56:34;;;;;;;0.70;0.63;;;21.30;27.50;21.70;93250.00;;;;10285421;28;45184;-66
2021/11/25 01:01:34;;;;;;;1.17;0.77;;;21.20;27.50;21.70;93244.00;;;;10269059;28;47133;-67
2021/11/25 01:06:35;;;;;;;1.02;0.70;;;21.20;27.50;21.70;93241.00;;;;10285043;28;45575;-67
2021/11/25 01:11:36;;;;;;;1.00;0.90;;;21.20;27.50;21.70;93240.00;;;;10285230;28;45257;-67
2021/11/25 01:16:36;;;;;;;0.98;0.70;;;21.20;27.50;21.70;93237.00;;;;10268315;28;47179;-67
2021/11/25 01:21:37;;;;;;;1.00;0.70;;;21.20;27.50;21.70;93231.00;;;;10300711;28;47143;-68
2021/11/25 01:26:38;;;;;;;0.95;0.70;;;21.20;27.50;21.70;93222.00;;;;10284560;28;45177;-67
2021/11/25 01:31:40;;;;;;;1.23;0.73;;;21.20;27.50;21.70;93220.00;;;;10268069;28;46892;-68
2021/11/25 01:36:41;;;;;;;0.75;0.60;;;21.20;27.50;21.70;93229.00;;;;10300638;28;48071;-67
2021/11/25 01:41:42;;;;;;;0.98;0.65;;;21.20;27.50;21.70;93227.00;;;;10300561;28;46992;-68
2021/11/25 01:46:43;;;;;;;1.08;0.80;;;21.20;27.50;21.70;93223.00;;;;10269985;28;47196;-67
2021/11/25 01:51:44;;;;;;;0.90;0.73;;;21.20;27.50;21.70;93200.00;;;;10328654;28;45259;-67
2021/11/25 01:56:45;;;;;;;1.40;0.70;;;21.20;27.50;21.70;93205.00;;;;10316089;28;46285;-66
2021/11/25 02:01:46;;;;;;;0.50;0.50;;;21.20;27.50;21.70;93184.00;;;;10326553;28;47110;-68
2021/11/25 02:06:46;;;;;;;1.42;0.80;;;21.20;27.50;21.70;93190.00;;;;10313533;28;45150;-67
2021/11/25 02:11:48;;;;;;;0.80;0.70;;;21.20;27.50;21.70;93165.00;;;;10315898;28;45358;-66
2021/11/25 02:16:50;;;;;;;1.10;0.50;;;21.20;27.50;21.70;93169.00;;;;10330655;28;45457;-66
2021/11/25 02:21:50;;;;;;;0.80;0.65;;;21.20;27.40;21.70;93157.00;;;;10313524;28;48048;-67
2021/11/25 02:26:51;;;;;;;0.70;0.40;;;21.20;27.50;21.70;93156.00;;;;10329870;28;47144;-66
2021/11/25 02:31:52;;;;;;;0.57;0.57;;;21.20;27.50;21.70;93147.00;;;;10330349;28;46244;-66
2021/11/25 02:36:53;;;;;;;0.50;0.50;;;21.20;27.50;21.70;93142.00;;;;10314988;28;45291;-67
2021/11/25 02:41:54;;;;;;;0.57;0.50;;;21.20;28.10;21.70;93123.00;;;;10329602;28;47006;-67
2021/11/25 02:47:00;;;;;;;0.60;0.50;;;21.20;27.50;21.70;93125.00;;;;10313044;28;47154;-69
2021/11/25 02:52:00;;;;;;;0.52;0.50;;;21.20;27.50;21.70;93124.00;;;;10289260;28;45317;-66
2021/11/25 02:57:02;;;;;;;0.57;0.50;;;21.20;27.50;21.60;93123.00;;;;10288756;28;45237;-66
2021/11/25 03:02:02;;;;;;;1.23;0.70;;;21.20;28.10;21.70;93110.00;;;;10304684;28;47296;-66
2021/11/25 03:07:03;;;;;;;1.05;0.50;;;21.20;27.50;21.70;93095.00;;;;10273215;28;45286;-66
2021/11/25 03:12:04;;;;;;;0.55;0.47;;;21.10;27.50;21.70;93098.00;;;;10273350;28;46164;-66
2021/11/25 03:17:05;;;;;;;0.73;0.70;;;21.20;27.50;21.70;93084.00;;;;11558192;23;45802;-66
2021/11/25 03:22:06;;;;;;;0.63;0.50;;;21.10;27.50;21.60;93093.00;;;;10377882;28;45221;-66
2021/11/25 03:27:07;;;;;;;0.50;0.50;;;21.20;27.40;21.70;93104.00;;;;10370181;28;45578;-66
2021/11/25 03:32:08;;;;;;;0.50;0.50;;;21.20;27.50;21.70;93102.00;;;;10410612;22;45572;-68
2021/11/25 03:37:08;;;;;;;0.57;0.50;;;21.20;27.50;21.70;93111.00;;;;10352916;28;47357;-68
2021/11/25 03:42:09;;;;;;;0.90;0.55;;;21.10;27.50;21.70;93097.00;;;;10353355;28;47265;-67
2021/11/25 03:47:11;;;;;;;0.57;0.50;;;21.20;27.50;21.70;93091.00;;;;10352928;28;48230;-68
2021/11/25 03:52:12;;;;;;;0.50;0.50;;;21.10;27.50;21.70;93077.00;;;;10353117;28;46879;-68
2021/11/25 03:57:12;;;;;;;0.55;0.55;;;21.20;27.50;21.70;93075.00;;;;10352737;28;47273;-67
2021/11/25 04:02:13;;;;;;;0.52;0.50;;;21.20;27.50;21.70;93058.00;;;;10369295;28;45289;-67
2021/11/25 04:07:14;;;;;;;0.40;0.40;;;21.20;27.50;21.70;93053.00;;;;10369110;28;45316;-68
2021/11/25 04:12:15;;;;;;;0.50;0.50;;;21.20;27.50;21.70;93033.00;;;;10352105;28;46871;-66
2021/11/25 04:17:18;;;;;;;0.52;0.50;;;21.20;27.50;21.70;93056.00;;;;10351926;28;48557;-66
2021/11/25 04:22:21;;;;;;;0.70;0.50;;;21.20;27.50;21.70;93064.00;;;;10361573;28;47866;-66
2021/11/25 04:27:22;;;;;;;0.57;0.55;;;21.20;27.50;21.70;93053.00;;;;10378261;28;47163;-66
2021/11/25 04:37:43;;;;;;;0.57;0.57;;;21.20;27.50;21.70;93047.00;;;;10372791;28;45252;-67
2021/11/25 04:42:44;;;;;;;0.60;0.60;;;21.20;27.40;21.70;93024.00;;;;10392336;28;47634;-66
2021/11/25 04:47:45;;;;;;;0.88;0.60;;;21.20;27.50;21.70;93027.00;;;;10408165;28;45146;-66
2021/11/25 04:52:45;;;;;;;0.50;0.50;;;21.20;27.50;21.70;93027.00;;;;10392937;28;46142;-66
2021/11/25 04:57:46;;;;;;;0.55;0.50;;;21.20;27.50;21.70;93028.00;;;;10376091;28;45256;-66
2021/11/25 05:02:47;;;;;;;0.45;0.45;;;21.20;27.50;21.70;93015.00;;;;10350522;28;47237;-66
2021/11/25 05:07:49;;;;;;;0.57;0.50;;;21.20;27.50;21.70;93026.00;;;;10367042;28;45279;-66
2021/11/25 05:12:49;;;;;;;0.55;0.50;;;21.20;27.50;21.80;93008.00;;;;10366819;28;46645;-66
2021/11/25 05:17:51;;;;;;;0.52;0.45;;;21.30;27.50;21.90;93001.00;;;;10367162;28;45583;-66
2021/11/25 05:22:52;;;;;;;0.60;0.60;;;21.40;27.50;22.00;93001.00;;;;10355513;28;47935;-67
2021/11/25 05:27:53;;;;;;;0.77;0.60;;;21.40;27.40;22.10;93011.00;;;;10356896;28;47519;-68
2021/11/25 05:32:54;;;;;;;0.40;0.40;;;21.50;27.40;22.10;93006.00;;;;10379621;28;48305;-67
2021/11/25 05:37:55;;;;;;;0.45;0.45;;;21.60;27.30;22.20;93036.00;;;;10397750;28;47214;-67
2021/11/25 05:42:55;;;;;;;0.47;0.40;;;21.60;27.30;22.20;93033.00;;;;10398870;28;45227;-67
2021/11/25 05:47:56;;;;;;;0.73;0.60;;;21.70;27.20;22.30;93049.00;;;;10414235;28;45644;-68
2021/11/25 05:52:59;;;;;;;0.65;0.50;;;21.70;27.20;22.30;93050.00;;;;10414145;28;45437;-67
2021/11/25 05:58:00;;;;;;;0.65;0.50;;;21.80;27.20;22.30;93043.00;;;;10396612;28;47262;-68
2021/11/25 06:03:00;;;;;;;0.60;0.57;;;21.80;27.10;22.30;93048.00;;;;10414195;28;45336;-68
2021/11/25 06:08:02;;;;;;;0.63;0.63;;;21.80;27.10;22.30;93042.00;;;;10396731;28;46968;-67
2021/11/25 06:13:03;;;;;;;0.80;0.70;;;21.80;27.60;22.30;93051.00;;;;10396401;28;47073;-68
2021/11/25 06:18:03;;;;;;;0.95;0.60;;;21.80;27.00;22.30;93026.00;;;;10395881;28;46867;-68
2021/11/25 06:23:05;;;;;;;0.68;0.57;;;21.80;27.00;22.30;93038.00;;;;10412750;28;45532;-68
2021/11/25 06:28:07;;;;;;;0.50;0.50;;;21.80;27.00;22.30;93048.00;;;;10411385;28;45467;-68
2021/11/25 06:33:08;;;;;;;0.90;0.60;;;21.80;26.90;22.30;93026.00;;;;10353519;28;48094;-67
2021/11/25 06:38:09;;;;;;;0.60;0.60;;;21.80;26.90;22.30;93033.00;;;;10355856;28;46126;-68
2021/11/25 06:43:09;;;;;;;0.68;0.47;;;21.80;26.90;22.30;93002.00;;;;10370394;28;45343;-68
2021/11/25 06:48:10;;;;;;;0.80;0.63;;;21.80;26.80;22.30;93015.00;;;;10371102;28;45419;-67
2021/11/25 06:53:11;;;;;;;0.68;0.50;;;21.80;26.80;22.40;92992.00;;;;10354280;28;47193;-68
2021/11/25 06:58:12;;;;;;;0.80;0.65;;;21.80;26.90;22.40;92986.00;;;;10371296;28;45381;-68
2021/11/25 07:03:13;;;;;;;1.20;1.10;;;21.80;26.90;22.20;92989.00;;;;10353903;28;46990;-68
2021/11/25 07:08:13;;;;;;;1.42;1.20;;;21.80;26.20;22.10;92991.00;;;;10353865;28;47088;-68
2021/11/25 07:13:14;;;;;;;1.80;1.40;;;21.70;25.90;22.00;92985.00;;;;10367120;28;46429;-68
2021/11/25 07:18:16;;;;;;;1.80;1.30;;;21.60;25.70;21.80;92979.00;;;;10335146;28;45280;-67
2021/11/25 07:23:17;;;;;;;1.88;1.30;;;21.50;25.60;21.80;92986.00;;;;10328613;28;45584;-67
2021/11/25 07:28:17;;;;;;;2.60;1.60;;;21.50;25.90;21.80;92981.00;;;;10317581;28;45232;-67
2021/11/25 07:33:18;;;;;;;2.03;1.50;;;21.40;25.60;21.70;92991.00;;;;10410200;28;45176;-67
2021/11/25 07:38:19;;;;;;;2.17;1.50;;;21.40;25.70;21.70;92989.00;;;;10393344;28;47857;-67
2021/11/25 07:43:19;;;;;;;1.65;1.20;;;21.40;25.60;21.60;93004.00;;;;10392223;28;47089;-67
2021/11/25 07:48:20;;;;;;;1.83;1.35;;;21.30;25.80;21.60;93026.00;;;;10410363;28;45382;-68
2021/11/25 07:53:20;;;;;;;1.40;1.25;;;21.30;25.50;21.60;93017.00;;;;10394481;28;47926;-67
2021/11/25 07:58:22;;;;;;;1.67;1.20;;;21.30;25.60;21.60;93005.00;;;;10395751;28;45361;-67
2021/11/25 08:03:24;;;;;;;2.28;1.40;;;21.30;25.60;21.60;93025.00;;;;10393940;28;47048;-67
2021/11/25 08:08:25;;;;;;;2.22;1.58;;;21.20;25.50;21.60;93006.00;;;;10394080;28;46870;-66
2021/11/25 08:13:28;;;;;;;2.33;1.40;;;21.30;25.40;21.60;93027.00;;;;10410589;28;45248;-66
2021/11/25 08:18:29;;;;;;;2.38;1.17;;;21.20;25.50;21.60;93024.00;;;;10395024;28;46276;-67
2021/11/25 08:23:29;;;;;;;1.77;1.40;;;21.20;25.40;21.60;93029.00;;;;10393596;28;47040;-67
2021/11/25 08:28:30;;;;;;;3.58;1.60;;;21.20;25.30;21.50;93012.00;;;;10403013;28;45409;-63
2021/11/25 08:33:32;;;;;;;2.08;1.40;;;21.10;25.50;21.50;93009.00;;;;10358719;28;45388;-66
2021/11/25 08:38:33;;;;;;;1.38;1.08;;;21.20;25.90;21.60;93019.00;;;;10397678;28;45511;-66
2021/11/25 08:43:34;;;;;;;2.00;1.10;;;21.20;26.20;21.60;93007.00;;;;10384516;28;45242;-64
2021/11/25 08:48:34;;;;;;;1.90;1.15;;;21.30;26.20;21.70;92997.00;;;;10351010;28;45580;-66
2021/11/25 08:53:35;;;;;;;1.23;0.98;;;21.30;26.10;21.70;92981.00;;;;10366623;28;46884;-64
2021/11/25 08:58:38;;;;;;;2.03;1.13;;;21.30;26.30;21.70;93000.00;;;;10373865;28;45432;-65
2021/11/25 09:03:39;;;;;;;1.55;1.23;;;21.30;26.10;21.70;93016.00;;;;10374930;28;45454;-64
2021/11/25 09:08:41;;;;;;;1.15;0.85;;;21.30;26.30;21.70;93016.00;;;;10356249;28;47291;-62
2021/11/25 09:13:43;;;;;;;1.77;1.20;;;21.30;26.40;21.70;93030.00;;;;10360815;28;45568;-64
2021/11/25 09:18:45;;;;;;;2.05;1.40;;;21.40;26.00;21.70;93022.00;;;;10390606;28;47106;-66
2021/11/25 09:23:46;;;;;;;1.63;1.13;;;21.30;25.70;21.70;93021.00;;;;10357368;28;47137;-64
2021/11/25 09:28:47;;;;;;;1.80;1.30;;;21.40;26.00;21.70;93005.00;;;;10373507;28;46063;-64
2021/11/25 09:33:48;;;;;;;2.22;1.00;;;21.30;26.00;21.70;93010.00;;;;10372510;28;46541;-65
2021/11/25 09:38:49;;;;;;;1.25;1.02;;;21.30;25.90;21.70;93006.00;;;;10347380;28;45345;-64
2021/11/25 09:43:50;;;;;;;2.28;1.30;;;21.30;26.30;21.80;93014.00;;;;10357611;28;47053;-67
2021/11/25 09:48:54;;;;;;;2.92;1.00;;;21.40;26.50;21.80;93010.00;;;;10358510;28;45538;-62
2021/11/25 09:53:55;;;;;;;3.22;1.10;;;21.40;26.40;21.80;92990.00;;;;10275635;28;45376;-64
2021/11/25 09:58:56;;;;;;;2.28;1.10;;;21.40;26.40;21.80;92999.00;;;;10297383;28;46635;-64
2021/11/25 10:03:57;;;;;;;3.35;1.30;;;21.40;26.80;21.80;93009.00;;;;10347376;28;45890;-64
2021/11/25 10:09:06;;;;;;;1.42;1.00;;;21.40;26.50;21.80;92991.00;;;;10336697;28;45621;-63
2021/11/25 10:14:12;;;;;;;1.88;1.17;;;21.40;26.40;21.80;93000.00;;;;10315264;28;47141;-64
2021/11/25 10:19:23;;;;;;;3.25;1.67;;;21.40;26.40;21.80;92990.00;;;;10315353;28;47034;-64
2021/11/25 10:24:34;;;;;;;7.20;1.88;;;21.40;26.10;21.70;92982.00;;;;10345218;28;45308;-61
2021/11/25 10:29:35;;;;;;;3.97;2.30;;;21.40;25.90;21.70;92980.00;;;;10329234;28;48338;-60
2021/11/25 10:37:18;;;;;;;3.50;1.65;;;21.30;25.70;21.70;92968.00;;;;10517267;27;45193;-59
2021/11/25 10:42:32;;;;;;;4.18;1.70;;;21.30;26.50;21.80;92978.00;;;;10440822;28;47948;-59
2021/11/25 10:47:33;;;;;;;3.60;1.80;;;21.30;27.00;21.80;92992.00;;;;10427342;28;46516;-60
2021/11/25 10:52:44;;;;;;;3.90;2.20;;;21.40;27.10;21.80;92988.00;;;;10427764;28;45306;-61
2021/11/25 10:57:52;;;;;;;2.63;1.65;;;21.40;26.90;21.80;92989.00;;;;10422719;28;45165;-63
2021/11/25 11:03:12;;;;;;;2.95;1.50;;;21.40;26.70;21.80;92990.00;;;;10424484;28;45280;-60
2021/11/25 11:08:15;;;;;;;3.47;1.55;;;21.40;26.90;21.80;92994.00;;;;10426388;28;45236;-61
2021/11/25 11:13:26;;;;;;;2.92;1.50;;;21.40;26.90;21.90;92987.00;;;;10423908;28;46680;-61
2021/11/25 11:18:45;;;;;;;2.30;1.58;;;21.40;27.00;21.90;92988.00;;;;10422461;28;45339;-61
2021/11/25 11:23:47;;;;;;;3.92;1.52;;;21.50;26.90;21.80;92969.00;;;;10425230;28;46468;-60
2021/11/25 11:28:49;;;;;;;5.32;1.77;;;21.50;26.80;21.90;92965.00;;;;10446137;28;45642;-61
2021/11/25 11:33:50;;;;;;;4.05;1.92;;;21.50;26.70;21.80;92969.00;;;;10429903;28;45164;-61
2021/11/25 11:38:51;;;;;;;5.43;2.35;;;21.40;26.70;21.80;92969.00;;;;10437620;28;45485;-62
2021/11/25 11:43:52;;;;;;;5.07;2.30;;;21.40;26.70;21.80;92973.00;;;;10436476;28;45462;-60
2021/11/25 11:48:52;;;;;;;4.70;2.30;;;21.40;26.60;21.80;92974.00;;;;10409664;28;46323;-62
2021/11/25 11:53:57;;;;;;;5.20;2.85;;;21.40;26.70;21.80;92970.00;;;;10393775;28;45494;-62
2021/11/25 11:58:59;;;;;;;4.57;2.42;;;21.40;26.70;21.80;92971.00;;;;10393218;28;48012;-60
2021/11/25 12:04:03;;;;;;;6.43;3.00;;;21.40;26.80;21.70;92958.00;;;;10393924;28;45239;-63
2021/11/25 12:09:21;;;;;;;6.03;2.92;;;21.30;26.70;21.80;92951.00;;;;10388168;28;46350;-63
2021/11/25 12:14:30;;;;;;;4.57;2.80;;;21.40;26.80;21.80;92925.00;;;;10392123;28;45379;-64
2021/11/25 12:19:43;;;;;;;6.15;2.80;;;21.40;26.90;21.80;92938.00;;;;10377648;28;47116;-62
2021/11/25 12:24:50;;;;;;;5.28;2.45;;;21.40;26.80;21.80;92915.00;;;;10394542;28;45332;-61
2021/11/25 12:30:09;;;;;;;5.30;2.72;;;21.40;26.90;21.90;92906.00;;;;10408869;28;45996;-61
2021/11/25 12:35:19;;;;;;;4.78;2.83;;;21.40;26.60;22.10;92895.00;;;;10392255;28;46733;-60
2021/11/25 12:40:19;;;;;;;4.55;2.67;;;21.50;26.40;22.20;92899.00;;;;10393431;28;45196;-61
2021/11/25 12:45:42;;;;;;;3.42;2.47;;;21.60;26.40;22.20;92885.00;;;;10393659;28;45997;-61
2021/11/25 12:50:53;;;;;;;4.82;2.65;;;21.70;26.40;22.30;92897.00;;;;10391994;28;47150;-63
2021/11/25 12:56:04;;;;;;;5.10;2.60;;;21.70;26.40;22.30;92887.00;;;;10404608;28;46974;-61
2021/11/25 13:01:20;;;;;;;4.10;2.58;;;21.80;26.30;22.30;92894.00;;;;10391270;28;46418;-63
2021/11/25 13:06:21;;;;;;;4.13;2.50;;;21.80;26.30;22.40;92887.00;;;;10391099;28;46306;-63
2021/11/25 13:11:25;;;;;;;4.68;2.78;;;21.80;26.30;22.40;92882.00;;;;10392536;28;46433;-63
2021/11/25 13:16:26;;;;;;;4.70;3.20;;;21.80;26.30;22.10;92903.00;;;;10389349;28;47102;-63
2021/11/25 13:21:36;;;;;;;5.40;3.10;;;21.80;26.00;22.00;92896.00;;;;10393609;28;46430;-64
2021/11/25 13:26:50;;;;;;;5.57;2.90;;;21.70;26.00;22.00;92882.00;;;;10394187;28;46970;-61
2021/11/25 13:31:51;;;;;;;4.55;2.92;;;21.60;26.30;21.90;92881.00;;;;10394322;28;45200;-64
2021/11/25 13:36:56;;;;;;;4.55;2.97;;;21.60;26.20;22.00;92889.00;;;;10376379;28;47037;-64
2021/11/25 13:42:02;;;;;;;4.20;2.42;;;21.60;26.80;22.10;92890.00;;;;10392656;28;45438;-65
2021/11/25 13:47:11;;;;;;;4.18;2.50;;;21.60;26.80;22.10;92899.00;;;;10392546;28;45164;-64
2021/11/25 13:52:14;;;;;;;3.70;2.25;;;21.70;26.70;22.10;92884.00;;;;10392282;28;45257;-61
2021/11/25 13:57:17;;;;;;;3.25;2.40;;;21.70;26.50;22.00;92886.00;;;;10392543;28;46900;-62
2021/11/25 14:02:27;;;;;;;3.08;2.30;;;21.60;26.40;22.00;92875.00;;;;10392348;28;45359;-62
2021/11/25 14:07:30;;;;;;;3.83;2.60;;;21.60;26.40;22.00;92872.00;;;;10392209;28;46192;-62
2021/11/25 14:12:32;;;;;;;5.25;2.88;;;21.60;26.30;22.00;92886.00;;;;10391553;28;45279;-62
2021/11/25 14:17:33;;;;;;;7.47;3.53;;;21.60;26.40;22.10;92880.00;;;;10391600;28;46902;-61
2021/11/25 14:22:34;;;;;;;8.25;3.83;;;21.60;26.40;22.00;92894.00;;;;10390743;28;45371;-62
2021/11/25 14:33:03;;;;;;;9.77;4.63;;;21.60;26.40;22.00;92890.00;;;;10391849;28;45699;-62
2021/11/25 14:38:13;;;;;;;10.77;4.63;;;21.60;26.40;22.00;92907.00;;;;10368578;28;47093;-64
2021/11/25 14:43:24;;;;;;;8.27;4.60;;;21.60;26.60;22.10;92889.00;;;;10390037;28;45862;-64
2021/11/25 14:48:30;;;;;;;7.70;4.28;;;21.60;26.90;22.10;92901.00;;;;10413744;28;47066;-64
2021/11/25 14:53:44;;;;;;;7.93;3.90;;;21.60;27.00;22.10;92927.00;;;;10380338;28;47777;-64
2021/11/25 14:58:54;;;;;;;9.13;4.47;;;21.60;26.90;22.00;92916.00;;;;10391392;28;45458;-64
2021/11/25 15:04:01;;;;;;;7.95;4.68;;;21.60;26.80;22.00;92923.00;;;;10374720;28;47283;-64
2021/11/25 15:09:10;;;;;;;8.00;4.57;;;21.60;26.80;22.00;92927.00;;;;10390579;28;46550;-64
2021/11/25 15:14:16;;;;;;;7.88;4.18;;;21.60;26.90;22.00;92929.00;;;;10391679;28;45665;-66
2021/11/25 15:19:17;;;;;;;7.57;3.33;;;21.60;27.00;22.00;92927.00;;;;10402148;28;45665;-63
2021/11/25 15:24:18;;;;;;;7.65;4.22;;;21.60;27.10;22.00;92923.00;;;;10413402;28;46597;-65
2021/11/25 15:29:19;;;;;;;6.63;3.40;;;21.60;27.00;22.10;92928.00;;;;10397686;28;45632;-64
2021/11/25 15:34:19;;;;;;;7.00;3.70;;;21.70;27.20;22.20;92936.00;;;;10398690;28;45127;-62
2021/11/25 15:39:21;;;;;;;7.68;4.03;;;21.70;27.10;22.30;92934.00;;;;10399326;28;45219;-63
2021/11/25 15:44:22;;;;;;;6.38;3.70;;;21.80;27.10;22.30;92943.00;;;;10397921;28;46006;-62
2021/11/25 15:49:22;;;;;;;4.93;2.45;;;21.80;27.10;22.30;92929.00;;;;10397409;28;46689;-62
2021/11/25 15:54:23;;;;;;;4.72;2.65;;;21.80;28.20;22.40;92951.00;;;;10397446;28;46454;-60
2021/11/25 15:59:24;;;;;;;6.35;3.45;;;21.90;27.80;22.30;92942.00;;;;10397589;28;46247;-60
2021/11/25 16:04:25;;;;;;;6.50;3.85;;;21.90;27.40;22.10;92940.00;;;;10398073;28;45332;-60
2021/11/25 16:09:26;;;;;;;7.82;3.92;;;21.80;27.00;22.10;92944.00;;;;10396914;28;47198;-61
2021/11/25 16:14:28;;;;;;;7.70;3.60;;;21.80;27.10;22.10;92944.00;;;;10395558;28;45486;-64
2021/11/25 16:19:29;;;;;;;7.03;3.97;;;21.70;27.60;22.10;92948.00;;;;10395226;28;48129;-62
2021/11/25 16:24:30;;;;;;;7.55;4.05;;;21.70;26.90;22.10;92942.00;;;;10397879;28;46373;-61
2021/11/25 16:29:31;;;;;;;6.82;3.33;;;21.70;27.00;22.10;92952.00;;;;10396550;28;46753;-60
2021/11/25 16:34:34;;;;;;;6.40;3.47;;;21.70;27.00;22.10;92945.00;;;;10397081;28;45171;-61
2021/11/25 16:39:36;;;;;;;7.03;4.13;;;21.70;26.90;22.00;92963.00;;;;10379217;28;47133;-62
2021/11/25 16:44:38;;;;;;;6.28;3.83;;;21.70;27.00;22.00;92952.00;;;;10396633;28;45438;-61
2021/11/25 16:49:42;;;;;;;6.68;3.78;;;21.60;26.90;22.00;92960.00;;;;10395195;28;45234;-60
2021/11/25 16:54:44;;;;;;;7.15;4.03;;;21.70;26.90;22.10;92963.00;;;;10396394;28;45359;-62
2021/11/25 16:59:45;;;;;;;6.10;3.70;;;21.70;27.00;22.10;92981.00;;;;10396630;28;45354;-60
2021/11/25 17:04:46;;;;;;;6.18;3.45;;;21.70;26.90;22.00;92973.00;;;;10395527;28;45444;-60
2021/11/25 17:09:46;;;;;;;5.78;3.67;;;21.60;26.90;21.90;92964.00;;;;10394979;28;45573;-61
2021/11/25 17:14:47;;;;;;;6.82;3.63;;;21.60;26.90;21.90;92960.00;;;;10395552;28;45525;-60
2021/11/25 17:19:48;;;;;;;5.15;3.42;;;21.60;26.90;22.00;92971.00;;;;10394591;28;46971;-60
2021/11/25 17:24:49;;;;;;;6.43;3.72;;;21.60;26.90;21.90;92977.00;;;;10393898;28;47533;-59
2021/11/25 17:29:50;;;;;;;7.38;3.92;;;21.60;26.90;21.90;92965.00;;;;10410135;28;45428;-60
2021/11/25 17:34:51;;;;;;;6.35;4.10;;;21.60;26.90;21.90;92973.00;;;;10433122;28;45460;-60
2021/11/25 17:39:51;;;;;;;5.75;3.90;;;21.60;26.80;21.90;92974.00;;;;10412399;28;45315;-58
2021/11/25 17:44:52;;;;;;;5.50;3.33;;;21.50;26.80;21.80;92969.00;;;;10405990;28;46960;-58
2021/11/25 17:49:53;;;;;;;6.35;3.97;;;21.50;26.90;21.90;92959.00;;;;10422911;28;47174;-61
2021/11/25 17:54:55;;;;;;;5.45;3.45;;;21.60;27.00;21.90;92964.00;;;;10398764;28;45477;-65
2021/11/25 17:59:56;;;;;;;5.05;3.17;;;21.60;27.10;21.90;92970.00;;;;10377312;28;47125;-60
2021/11/25 18:04:56;;;;;;;4.45;3.35;;;21.60;27.10;21.90;92966.00;;;;10376934;28;46872;-59
2021/11/25 18:09:57;;;;;;;5.20;3.72;;;21.60;26.90;21.90;92967.00;;;;10394534;28;45184;-61
2021/11/25 18:14:58;;;;;;;5.70;3.38;;;21.50;26.90;21.90;92959.00;;;;10376657;28;47216;-59
2021/11/25 18:19:59;;;;;;;6.28;3.92;;;21.60;26.70;22.00;92967.00;;;;10393029;28;46926;-62
2021/11/25 18:25:00;;;;;;;6.10;3.95;;;21.60;26.60;22.00;92964.00;;;;10393084;28;45587;-60
2021/11/25 18:30:00;;;;;;;6.75;4.25;;;21.60;26.60;22.00;92965.00;;;;10404831;28;45752;-60
2021/11/25 18:35:01;;;;;;;7.72;3.90;;;21.60;26.60;21.90;92963.00;;;;10431742;28;45405;-61
2021/11/25 18:40:04;;;;;;;7.07;4.13;;;21.50;26.50;21.90;92984.00;;;;10417268;28;47236;-60
2021/11/25 18:45:10;;;;;;;5.65;3.90;;;21.60;26.60;21.90;92976.00;;;;10432400;28;45259;-62
2021/11/25 18:50:11;;;;;;;4.97;3.72;;;21.50;26.70;21.90;92981.00;;;;10428899;28;45693;-63
2021/11/25 18:55:12;;;;;;;5.05;3.58;;;21.50;26.70;21.90;92971.00;;;;10383109;28;46977;-61
2021/11/25 19:00:15;;;;;;;6.22;3.60;;;21.50;26.80;21.90;92969.00;;;;10400798;28;45189;-61
2021/11/25 19:05:18;;;;;;;6.28;3.85;;;21.50;26.70;21.90;92986.00;;;;10384953;28;48160;-61
2021/11/25 19:10:19;;;;;;;5.38;3.38;;;21.50;26.80;21.90;92986.00;;;;10383870;28;46863;-61
2021/11/25 19:15:20;;;;;;;4.88;3.40;;;21.60;26.70;21.90;92981.00;;;;10400638;28;46330;-61
2021/11/25 19:20:21;;;;;;;5.13;3.10;;;21.60;26.80;21.90;92976.00;;;;10399962;28;45495;-63
2021/11/25 19:25:22;;;;;;;5.00;3.00;;;21.60;26.80;21.80;92975.00;;;;10401259;28;45444;-60
2021/11/25 19:30:24;;;;;;;5.03;3.33;;;21.50;27.10;21.90;92959.00;;;;10399707;28;46146;-61
2021/11/25 19:35:25;;;;;;;4.78;3.00;;;21.60;26.70;21.90;92959.00;;;;10400635;28;46095;-63
2021/11/25 19:40:26;;;;;;;4.80;3.00;;;21.60;26.90;21.80;92971.00;;;;10400564;28;46373;-63
2021/11/25 19:45:27;;;;;;;4.25;3.13;;;21.50;25.30;21.80;92971.00;;;;10399532;28;45200;-62
2021/11/25 19:50:28;;;;;;;4.25;2.78;;;21.40;26.20;21.90;92968.00;;;;10399189;28;45447;-62
2021/11/25 19:55:29;;;;;;;3.33;2.33;;;21.50;26.40;21.90;92962.00;;;;10397780;28;45314;-60
2021/11/25 20:00:38;;;;;;;4.20;2.83;;;21.50;26.40;22.00;92957.00;;;;10398721;28;46337;-61
2021/11/25 20:05:38;;;;;;;3.38;2.30;;;21.50;26.50;22.00;92971.00;;;;10396544;28;46317;-60
2021/11/25 20:10:39;;;;;;;3.88;2.47;;;21.60;26.40;22.00;92965.00;;;;10398895;28;45242;-60
2021/11/25 20:15:43;;;;;;;3.28;2.30;;;21.50;26.40;22.00;92960.00;;;;10396890;28;45257;-60
2021/11/25 20:20:44;;;;;;;4.25;2.40;;;21.60;26.40;22.00;92959.00;;;;10397501;28;45184;-60
2021/11/25 20:25:44;;;;;;;3.35;2.22;;;21.50;26.40;22.00;92952.00;;;;10398472;28;45492;-62
2021/11/25 20:30:45;;;;;;;3.38;2.13;;;21.60;26.50;22.00;92959.00;;;;10409062;28;46953;-60
2021/11/25 20:35:47;;;;;;;3.95;2.35;;;21.60;26.40;22.00;92943.00;;;;10355684;28;47013;-60
2021/11/25 20:40:49;;;;;;;3.65;2.30;;;21.50;26.50;22.00;92952.00;;;;10379636;28;45217;-60
2021/11/25 20:45:50;;;;;;;2.90;2.10;;;21.50;26.50;21.90;92955.00;;;;10362333;28;46917;-60
2021/11/25 20:50:54;;;;;;;2.50;2.08;;;21.50;26.50;21.90;92956.00;;;;10339325;28;46871;-60
2021/11/25 20:55:56;;;;;;;2.58;1.73;;;21.50;26.50;22.00;92924.00;;;;10355242;28;45109;-60
2021/11/25 21:00:56;;;;;;;2.70;2.00;;;21.50;26.50;21.90;92920.00;;;;10397543;28;45257;-60
2021/11/25 21:05:57;;;;;;;2.53;1.80;;;21.50;26.50;21.90;92921.00;;;;10396925;28;45329;-60
2021/11/25 21:10:58;;;;;;;2.35;1.85;;;21.50;26.50;21.90;92931.00;;;;10357141;28;45532;-60
2021/11/25 21:15:59;;;;;;;2.47;2.00;;;21.50;26.50;21.90;92908.00;;;;10345062;28;46300;-60
2021/11/25 21:20:59;;;;;;;3.65;2.10;;;21.50;26.60;21.80;92896.00;;;;10328765;28;47504;-60
2021/11/25 21:26:01;;;;;;;2.65;1.70;;;21.40;26.50;21.80;92910.00;;;;10314667;28;45587;-60
2021/11/25 21:31:02;;;;;;;2.42;1.60;;;21.40;26.50;21.80;92899.00;;;;10345260;28;46066;-60
2021/11/25 21:36:03;;;;;;;2.15;1.65;;;21.40;26.40;21.70;92901.00;;;;10353530;28;46338;-60
2021/11/25 21:41:04;;;;;;;2.15;1.65;;;21.40;26.50;21.70;92894.00;;;;10348945;28;46885;-60
2021/11/25 21:46:05;;;;;;;2.20;1.70;;;21.40;26.50;21.70;92897.00;;;;10351409;28;45268;-60
2021/11/25 21:51:07;;;;;;;2.38;1.90;;;21.30;26.50;21.70;92891.00;;;;10352234;28;45251;-60
2021/11/25 21:56:08;;;;;;;2.58;1.80;;;21.30;26.40;21.60;92888.00;;;;10352548;28;46578;-60
2021/11/25 22:01:08;;;;;;;5.28;2.05;;;21.30;26.40;21.60;92881.00;;;;10354618;28;45280;-63
2021/11/25 22:06:09;;;;;;;3.00;2.00;;;21.20;26.30;21.60;92885.00;;;;10353302;28;46709;-62
2021/11/25 22:11:10;;;;;;;3.03;1.70;;;21.20;26.40;21.60;92881.00;;;;10352452;28;46501;-61
2021/11/25 22:16:11;;;;;;;2.97;2.00;;;21.20;26.30;21.60;92859.00;;;;10351900;28;45246;-62
2021/11/25 22:26:33;;;;;;;2.90;1.92;;;21.20;26.40;21.50;92864.00;;;;10352744;28;45193;-61